createdAt,value
2024-02-05T00:02:08.766Z,29.5
2024-02-05T00:07:06.355Z,29.5
2024-02-05T00:12:06.448Z,33.2
2024-02-05T00:17:06.417Z,33.2
2024-02-05T00:22:06.555Z,33.2
2024-02-05T00:27:06.533Z,29.0
2024-02-05T00:32:06.578Z,29.3
2024-02-05T00:37:06.721Z,29.3
2024-02-05T00:42:06.710Z,36.0
2024-02-05T00:47:06.783Z,28.0
2024-02-05T00:52:06.922Z,35.6
2024-02-05T00:57:06.938Z,33.9
2024-02-05T01:02:07.177Z,31.8
2024-02-05T01:07:07.291Z,27.3
2024-02-05T01:12:07.199Z,27.3
2024-02-05T01:17:07.353Z,26.2
2024-02-05T01:22:07.362Z,26.2
2024-02-05T01:27:07.224Z,26.2
2024-02-05T01:32:07.367Z,33.0
2024-02-05T01:37:07.453Z,32.8
2024-02-05T01:42:07.446Z,32.8
2024-02-05T01:47:07.506Z,32.0
2024-02-05T01:52:07.600Z,27.3
2024-02-05T01:57:07.722Z,27.3
2024-02-05T02:02:07.739Z,25.6
2024-02-05T02:07:07.772Z,27.8
2024-02-05T02:12:07.607Z,27.8
2024-02-05T02:17:07.709Z,23.5
2024-02-05T02:22:07.733Z,23.5
2024-02-05T02:27:07.739Z,28.1
2024-02-05T02:32:07.799Z,29.1
2024-02-05T02:37:07.831Z,25.9
2024-02-05T02:42:07.897Z,24.6
2024-02-05T02:47:07.919Z,19.5
2024-02-05T02:52:09.287Z,30.0
2024-02-05T02:57:08.041Z,30.0
2024-02-05T03:02:08.211Z,24.1
2024-02-05T03:07:08.214Z,24.2
2024-02-05T03:12:08.274Z,24.2
2024-02-05T03:17:08.431Z,20.7
2024-02-05T03:22:08.519Z,22.0
2024-02-05T03:27:08.464Z,22.0
2024-02-05T03:32:08.525Z,23.3
2024-02-05T03:37:08.738Z,31.7
2024-02-05T03:42:08.679Z,23.6
2024-02-05T03:47:08.705Z,23.6
2024-02-05T03:52:08.787Z,23.0
2024-02-05T03:57:08.719Z,25.9
2024-02-05T04:02:08.939Z,27.9
2024-02-05T04:07:08.786Z,21.2
2024-02-05T04:12:08.790Z,21.2
2024-02-05T04:17:08.836Z,32.3
2024-02-05T04:22:08.960Z,25.3
2024-02-05T04:27:08.977Z,25.3
2024-02-05T04:32:11.544Z,28.9
2024-02-05T04:37:09.247Z,28.9
2024-02-05T04:42:09.111Z,24.2
2024-02-05T04:47:09.163Z,24.2
2024-02-05T04:52:09.232Z,33.5
2024-02-05T04:57:09.228Z,23.1
2024-02-05T05:07:09.554Z,26.7
2024-02-05T05:12:09.408Z,24.2
2024-02-05T05:17:09.502Z,24.2
2024-02-05T05:22:09.505Z,27.9
2024-02-05T05:27:09.521Z,27.9
2024-02-05T05:32:10.796Z,31.2
2024-02-05T05:37:09.630Z,22.3
2024-02-05T05:42:09.635Z,18.7
2024-02-05T05:47:09.708Z,18.7
2024-02-05T05:52:09.869Z,20.8
2024-02-05T05:57:09.809Z,19.1
2024-02-05T06:02:09.959Z,28.6
2024-02-05T06:07:10.094Z,28.6
2024-02-05T06:12:09.945Z,29.3
2024-02-05T06:17:09.958Z,29.3
2024-02-05T06:22:10.068Z,29.6
2024-02-05T06:27:10.035Z,29.6
2024-02-05T06:32:10.096Z,25.5
2024-02-05T06:42:10.181Z,23.2
2024-02-05T06:47:10.188Z,25.5
2024-02-05T06:52:10.216Z,35.1
2024-02-05T06:57:10.242Z,35.1
2024-02-05T07:02:10.624Z,28.8
2024-02-05T07:07:10.316Z,25.0
2024-02-05T07:12:10.329Z,28.1
2024-02-05T07:17:10.373Z,28.1
2024-02-05T07:22:10.382Z,28.4
2024-02-05T07:27:10.381Z,16.8
2024-02-05T07:32:10.406Z,26.5
2024-02-05T07:37:10.431Z,26.5
2024-02-05T07:42:10.459Z,20.0
2024-02-05T07:47:10.534Z,13.1
2024-02-05T07:52:10.497Z,15.1
2024-02-05T07:57:10.529Z,15.1
2024-02-05T08:07:10.713Z,15.1
2024-02-05T08:12:10.679Z,16.5
2024-02-05T08:17:10.738Z,16.5
2024-02-05T08:22:10.783Z,11.7
2024-02-05T08:27:10.796Z,11.7
2024-02-05T08:32:10.780Z,11.0
2024-02-05T08:37:10.842Z,10.0
2024-02-05T08:42:21.125Z,8.1
2024-02-05T08:47:10.923Z,4.7
2024-02-05T08:52:11.000Z,2.7
2024-02-05T08:57:10.993Z,4.2
2024-02-05T09:02:11.065Z,4.2
2024-02-05T09:07:11.156Z,2.8
2024-02-05T09:12:15.051Z,2.8
2024-02-05T09:22:11.169Z,8.7
2024-02-05T09:27:11.170Z,2.9
2024-02-05T09:37:11.328Z,4.0
2024-02-05T09:42:11.367Z,2.4
2024-02-05T09:47:11.458Z,1.7
2024-02-05T09:52:12.841Z,3.6
2024-02-05T09:57:11.573Z,4.1
2024-02-05T10:02:14.821Z,4.6
2024-02-05T10:07:11.755Z,4.6
2024-02-05T10:12:11.734Z,5.6
2024-02-05T10:17:11.844Z,3.2
2024-02-05T10:22:11.909Z,3.2
2024-02-05T10:27:12.032Z,4.2
2024-02-05T10:32:12.037Z,4.3
2024-02-05T10:37:12.231Z,2.2
2024-02-05T10:42:12.177Z,2.2
2024-02-05T10:52:14.972Z,4.9
2024-02-05T10:57:12.387Z,4.2
2024-02-05T11:02:12.572Z,3.7
2024-02-05T11:07:12.653Z,3.7
2024-02-05T11:12:12.568Z,2.4
2024-02-05T11:17:12.692Z,5.7
2024-02-05T11:22:12.786Z,5.7
2024-02-05T11:32:12.872Z,3.8
2024-02-05T11:37:13.045Z,1.8
2024-02-05T11:42:13.129Z,1.8
2024-02-05T11:47:13.277Z,3.8
2024-02-05T11:52:13.485Z,1.3
2024-02-05T12:02:13.543Z,1.6
2024-02-05T12:17:13.836Z,1.0
2024-02-05T12:22:13.944Z,2.3
2024-02-05T12:27:13.957Z,2.3
2024-02-05T12:32:14.050Z,1.3
2024-02-05T12:37:14.179Z,6.1
2024-02-05T12:42:14.258Z,14.2
2024-02-05T12:47:14.295Z,9.1
2024-02-05T12:52:14.411Z,9.1
2024-02-05T12:57:14.468Z,13.4
2024-02-05T13:02:14.655Z,4.3
2024-02-05T13:07:14.675Z,7.3
2024-02-05T13:12:14.685Z,8.2
2024-02-05T13:17:14.851Z,8.2
2024-02-05T13:22:14.886Z,8.1
2024-02-05T13:27:14.893Z,9.2
2024-02-05T13:32:14.930Z,9.2
2024-02-05T13:37:15.097Z,11.7
2024-02-05T13:42:15.080Z,11.7
2024-02-05T13:47:15.149Z,33.1
2024-02-05T13:52:15.375Z,13.0
2024-02-05T13:57:15.275Z,13.0
2024-02-05T14:02:15.434Z,12.6
2024-02-05T14:07:15.836Z,6.8
2024-02-05T14:12:15.608Z,6.9
2024-02-05T14:17:15.677Z,7.7
2024-02-05T14:22:15.837Z,8.0
2024-02-05T14:32:15.885Z,5.1
2024-02-05T14:37:16.013Z,8.6
2024-02-05T14:42:16.080Z,9.4
2024-02-05T14:47:16.119Z,6.7
2024-02-05T14:52:16.260Z,4.9
2024-02-05T14:57:16.352Z,6.6
2024-02-05T15:02:16.415Z,6.6
2024-02-05T15:07:16.542Z,8.2
2024-02-05T15:12:16.539Z,4.7
2024-02-05T15:17:16.640Z,4.7
2024-02-05T15:22:19.308Z,8.7
2024-02-05T15:27:16.769Z,9.6
2024-02-05T15:32:16.897Z,9.6
2024-02-05T15:37:17.064Z,7.4
2024-02-05T15:42:17.014Z,7.8
2024-02-05T15:47:17.110Z,7.8
2024-02-05T15:52:17.196Z,12.5
2024-02-05T15:57:17.238Z,12.5
2024-02-05T16:02:17.358Z,22.4
2024-02-05T16:07:17.444Z,19.6
2024-02-05T16:12:19.927Z,13.8
2024-02-05T16:22:17.558Z,15.5
2024-02-05T16:27:17.629Z,20.8
2024-02-05T16:32:17.678Z,18.9
2024-02-05T16:37:17.797Z,18.0
2024-02-05T16:42:17.802Z,18.0
2024-02-05T16:47:17.885Z,21.0
2024-02-05T16:52:18.019Z,20.3
2024-02-05T16:57:18.041Z,19.7
2024-02-05T17:02:18.138Z,21.8
2024-02-05T17:07:18.274Z,15.5
2024-02-05T17:12:18.281Z,23.6
2024-02-05T17:22:18.375Z,21.2
2024-02-05T17:27:18.540Z,22.0
2024-02-05T17:32:18.505Z,25.6
2024-02-05T17:37:18.809Z,25.6
2024-02-05T18:02:19.175Z,15.0
2024-02-05T18:07:19.285Z,15.0
2024-02-05T18:12:19.185Z,23.5
2024-02-05T18:17:19.395Z,22.7
2024-02-05T18:22:19.428Z,20.2
2024-02-05T18:27:19.533Z,20.4
2024-02-05T18:32:19.491Z,22.9
2024-02-05T18:37:19.742Z,19.0
2024-02-05T18:42:19.662Z,26.4
2024-02-05T18:47:19.829Z,25.7
2024-02-05T18:52:19.873Z,24.6
2024-02-05T18:57:20.029Z,16.3
2024-02-05T19:02:20.186Z,28.6
2024-02-05T19:07:20.216Z,25.6
2024-02-05T19:12:20.219Z,26.4
2024-02-05T19:22:20.400Z,22.6
2024-02-05T19:27:20.561Z,31.0
2024-02-05T19:32:20.469Z,23.8
2024-02-05T19:37:20.657Z,27.1
2024-02-05T19:42:20.637Z,25.3
2024-02-05T19:47:20.883Z,20.9
2024-02-05T19:52:20.862Z,27.2
2024-02-05T19:57:20.964Z,35.6
2024-02-05T20:02:20.944Z,36.1
2024-02-05T20:07:21.038Z,27.6
2024-02-05T20:12:20.874Z,24.8
2024-02-05T20:17:21.022Z,21.1
2024-02-05T20:22:21.096Z,29.7
2024-02-05T20:27:21.218Z,29.3
2024-02-05T20:32:21.165Z,20.4
2024-02-05T20:37:21.422Z,23.7
2024-02-05T20:42:21.325Z,26.3
2024-02-05T20:47:21.506Z,29.9
2024-02-05T20:52:21.564Z,22.5
2024-02-05T20:57:21.719Z,32.1
2024-02-05T21:02:21.647Z,20.8
2024-02-05T21:07:21.961Z,26.4
2024-02-05T21:12:21.844Z,36.2
2024-02-05T21:17:22.082Z,29.2
2024-02-05T21:22:22.080Z,27.7
2024-02-05T21:27:22.293Z,29.7
2024-02-05T21:37:22.486Z,28.1
2024-02-05T21:42:22.397Z,28.2
2024-02-05T21:47:22.575Z,38.8
2024-02-05T21:52:22.610Z,60.1
2024-02-05T21:57:22.838Z,33.2
2024-02-05T22:02:22.904Z,37.8
2024-02-05T22:07:23.149Z,30.6
2024-02-05T22:12:22.984Z,26.4
2024-02-05T22:17:23.209Z,30.0
2024-02-05T22:22:23.154Z,36.2
2024-02-05T22:27:23.365Z,31.0
2024-02-05T22:32:23.250Z,28.7
2024-02-05T22:37:23.464Z,34.1
2024-02-05T22:42:23.385Z,23.1
2024-02-05T22:47:23.520Z,25.6
2024-02-05T22:52:24.871Z,25.6
2024-02-05T22:57:23.614Z,31.7
2024-02-05T23:02:23.678Z,36.0
2024-02-05T23:07:23.784Z,27.4
2024-02-05T23:12:23.731Z,25.0
2024-02-05T23:17:23.908Z,25.0
2024-02-05T23:22:24.959Z,35.4
2024-02-05T23:27:24.030Z,42.1
2024-02-05T23:32:23.982Z,42.1
2024-02-05T23:37:24.251Z,32.8
2024-02-05T23:42:24.178Z,34.8
2024-02-05T23:47:24.346Z,38.8
2024-02-05T23:52:24.378Z,27.4
2024-02-05T23:57:24.515Z,27.4
